Flight Track Log - Related Links

Times and Time Zones

All times are in EDT time to prevent confusion due to time zone crossing. See the QFA19 flight status page for this flight to view local times or setup timezone preferences in your user account.

Time Position Orientation Groundspeed Altitude Reporting Facility
EDT Latitude Longitude Course Direction KTS MPH feet Rate Location/Type
Wed 10:48:12 PM -33.9570 151.1790 360° North 97 112 300  Level FlightAware ADS-B
Wed 10:48:32 PM -33.9420 151.1750 348° North 167 192 300 1,029 Level FlightAware ADS-B
Wed 10:48:47 PM -33.9300 151.1720 348° North 163 188 900 2,690 Climbing FlightAware ADS-B
Wed 10:49:01 PM -33.9181 151.1683 345° North 169 194 1,600 1,636 Climbing FlightAware ADS-B
Wed 10:49:20 PM -33.9032 151.1643 347° North 182 209 1,800 615 Climbing FlightAware ADS-B
Wed 10:49:40 PM -33.8872 151.1562 337° Northwest 193 222 2,000 750 Climbing FlightAware ADS-B
Wed 10:50:00 PM -33.8745 151.1408 315° West 215 247 2,300 857 Climbing FlightAware ADS-B
Wed 10:50:22 PM -33.8584 151.1189 312° West 239 275 2,600 1,429 Climbing FlightAware ADS-B
Wed 10:50:42 PM -33.8445 151.1000 311° West 240 276 3,300 2,100 Climbing FlightAware ADS-B
Wed 10:51:02 PM -33.8294 151.0796 312° West 245 282 4,000 2,100 Climbing FlightAware ADS-B
Wed 10:51:22 PM -33.8128 151.0582 313° West 251 289 4,700 2,049 Climbing FlightAware ADS-B
Wed 10:51:43 PM -33.7961 151.0363 313° West 256 295 5,400 2,195 Climbing FlightAware ADS-B
Wed 10:52:03 PM -33.7800 151.0154 313° West 261 300 6,200 2,516 Climbing FlightAware ADS-B
Wed 10:52:14 PM -33.7712 151.0039 313° West 264 304 6,700 2,600 Climbing FlightAware ADS-B
Wed 10:52:33 PM -33.7550 150.9825 312° West 263 303 7,500 2,769 Climbing FlightAware ADS-B
Wed 10:52:53 PM -33.7392 150.9617 313° West 258 297 8,500 2,488 Climbing FlightAware ADS-B
Wed 10:53:14 PM -33.7225 150.9399 312° West 264 304 9,200 2,000 Climbing FlightAware ADS-B
Wed 10:53:29 PM -33.7095 150.9229 312° West 264 304 9,700 1,867 Climbing FlightAware ADS-B
Wed 10:53:59 PM -33.6842 150.8898 313° West 271 312 10,600 1,200 Climbing FlightAware ADS-B
Wed 10:54:29 PM -33.6584 150.8562 313° West 299 344 10,900 857 Climbing FlightAware ADS-B
Wed 10:55:02 PM -33.6248 150.8124 313° West 331 381 11,500 1,143 Climbing FlightAware ADS-B
Wed 10:55:32 PM -33.5926 150.7709 313° West 350 403 12,100 1,667 Climbing FlightAware ADS-B
Wed 10:56:14 PM -33.5624 150.7362 316° Northwest 356 410 13,500 2,055 Climbing FlightAware ADS-B
Wed 10:56:45 PM -33.5063 150.6714 316° Northwest 362 417 14,600 2,129 Climbing FlightAware ADS-B
Wed 10:57:16 PM -33.4677 150.6265 316° Northwest 361 415 15,700 1,841 Climbing FlightAware ADS-B
Wed 10:58:13 PM -33.3990 150.5470 316° Northwest 375 432 17,300 1,680 Climbing FlightAware ADS-B
Wed 10:58:31 PM -33.3751 150.5197 316° Northwest 379 436 17,800 1,690 Climbing FlightAware ADS-B
Wed 10:59:24 PM -33.3100 150.4440 316° Northwest 384 442 19,300 1,773 Climbing FlightAware ADS-B
Wed 10:59:59 PM -33.2650 150.3930 317° Northwest 385 443 20,400 1,833 Climbing FlightAware ADS-B
Wed 11:00:36 PM -33.2149 150.3354 316° Northwest 383 441 21,500 2,087 Climbing FlightAware ADS-B
Wed 11:01:08 PM -33.1750 150.2890 316° Northwest 377 434 22,800 1,701 Climbing FlightAware ADS-B
Wed 11:01:43 PM -33.1300 150.2380 316° Northwest 386 444 23,400 632 Climbing FlightAware ADS-B
Wed 11:01:46 PM -33.1275 150.2350 316° Northwest 377 434 23,200 968 Descending Aus ATC (RADAR)
Wed 11:02:14 PM -33.0902 150.1923 316° Northwest 375 432 23,900 1,650 Climbing Aus ATC (RADAR)
Wed 11:02:26 PM -33.0760 150.1770 316° Northwest 384 442 24,300 1,592 Climbing FlightAware ADS-B
Wed 11:03:03 PM -33.0270 150.1200 316° Northwest 393 452 25,200 1,183 Climbing FlightAware ADS-B
Wed 11:03:37 PM -32.9830 150.0710 317° Northwest 396 456 25,700 938 Climbing FlightAware ADS-B
Wed 11:04:07 PM -32.9410 150.0230 316° Northwest 401 461 26,200 904 Climbing FlightAware ADS-B
Wed 11:04:50 PM -32.8830 149.9570 316° Northwest 407 468 26,800 884 Climbing FlightAware ADS-B
Wed 11:05:42 PM -32.8150 149.8800 316° Northwest 412 474 27,600 706 Climbing FlightAware ADS-B
Wed 11:06:15 PM -32.7654 149.8243 316° Northwest 409 471 27,800 833 Climbing Aus ATC (RADAR)
Wed 11:06:18 PM -32.7640 149.8220 316° Northwest 415 478 28,100 1,200 Climbing FlightAware ADS-B
Wed 11:06:55 PM -32.7150 149.7680 317° Northwest 419 482 28,600 822 Climbing FlightAware ADS-B
Wed 11:07:31 PM -32.6690 149.7150 316° Northwest 421 484 29,100 716 Climbing FlightAware ADS-B
Wed 11:08:02 PM -32.6210 149.6620 317° Northwest 424 488 29,400 636 Climbing FlightAware ADS-B
Wed 11:08:37 PM -32.5710 149.6060 317° Northwest 430 495 29,800 692 Climbing FlightAware ADS-B
Wed 11:08:54 PM -32.5340 149.5770 327° Northwest 443 510 30,000 231 Climbing FlightAware ADS-B
Wed 11:09:29 PM -32.4700 149.5400 334° Northwest 447 514 30,000  Level FlightAware ADS-B
Wed 11:10:04 PM -32.4100 149.5040 333° Northwest 439 505 30,000  Level FlightAware ADS-B
Wed 11:10:34 PM -32.3490 149.4680 333° Northwest 437 503 30,000  Level FlightAware ADS-B
Wed 11:10:59 PM -32.3030 149.4400 333° Northwest 437 503 30,000  Level FlightAware ADS-B
Wed 11:11:49 PM -32.2110 149.3860 334° Northwest 447 514 30,000  Level FlightAware ADS-B
Wed 11:12:24 PM -32.1460 149.3470 333° Northwest 446 513 30,000  Level FlightAware ADS-B
Wed 11:12:54 PM -32.0910 149.3150 334° Northwest 437 503 30,000  Level FlightAware ADS-B
Wed 11:13:29 PM -32.0280 149.2780 334° Northwest 438 504 30,000  Level FlightAware ADS-B
Wed 11:14:03 PM -31.9619 149.2390 334° Northwest 438 504 30,000  Level Aus ATC (RADAR)
Wed 11:14:09 PM -31.9520 149.2330 334° Northwest 446 513 30,000 146 Level FlightAware ADS-B
Wed 11:14:44 PM -31.8880 149.1950 333° Northwest 447 514 30,100 554 Climbing FlightAware ADS-B
Wed 11:15:14 PM -31.8330 149.1630 334° Northwest 437 503 30,600 818 Climbing FlightAware ADS-B
Wed 11:15:50 PM -31.7712 149.1159 334° Northwest 435 501 31,000 533 Climbing Aus ATC (RADAR)
Wed 11:15:59 PM -31.7560 149.1040 334° Northwest 429 494 31,000 511 Level FlightAware ADS-B
Wed 11:16:37 PM -31.6890 149.0520 327° Northwest 442 509 31,400 706 Climbing FlightAware ADS-B
Wed 11:17:07 PM -31.6400 149.0130 327° Northwest 442 509 31,800 686 Climbing FlightAware ADS-B
Wed 11:17:12 PM -31.6280 149.0048 327° Northwest 434 499 31,800 600 Level Aus ATC (RADAR)
Wed 11:17:37 PM -31.5853 148.9717 327° Northwest 435 501 32,100 600 Climbing Aus ATC (RADAR)
Wed 11:17:42 PM -31.5790 148.9660 327° Northwest 444 511 32,100 533 Level FlightAware ADS-B
Wed 11:18:22 PM -31.5100 148.9130 327° Northwest 446 513 32,500 600 Climbing FlightAware ADS-B
Wed 11:18:52 PM -31.4580 148.8730 327° Northwest 446 513 32,800 514 Climbing FlightAware ADS-B
Wed 11:19:32 PM -31.3890 148.8200 327° Northwest 448 516 33,100 514 Climbing FlightAware ADS-B
Wed 11:20:02 PM -31.3410 148.7820 326° Northwest 448 516 33,400 554 Climbing FlightAware ADS-B
Wed 11:20:37 PM -31.2770 148.7330 327° Northwest 448 516 33,700 480 Climbing FlightAware ADS-B
Wed 11:21:17 PM -31.2060 148.6790 327° Northwest 447 514 34,000 257 Climbing FlightAware ADS-B
Wed 11:21:47 PM -31.1590 148.6420 326° Northwest 447 514 34,000  Level FlightAware ADS-B
Wed 11:22:19 PM -31.0993 148.5970 326° Northwest 446 513 34,000  Level Aus ATC (RADAR)
Wed 11:22:22 PM -31.0960 148.5940 326° Northwest 445 512 34,000  Level FlightAware ADS-B
Wed 11:22:57 PM -31.0380 148.5500 327° Northwest 444 511 34,000  Level FlightAware ADS-B
Wed 11:23:32 PM -30.9730 148.5010 327° Northwest 444 511 34,000 -86 Level FlightAware ADS-B
Wed 11:24:07 PM -30.9123 148.4552 327° Northwest 438 504 33,900  Descending Aus ATC (RADAR)
Wed 11:24:12 PM -30.9090 148.4510 327° Northwest 445 512 34,000 171 Climbing FlightAware ADS-B
Wed 11:24:42 PM -30.8590 148.4130 327° Northwest 445 512 34,000  Level FlightAware ADS-B
Wed 11:25:27 PM -30.7840 148.3560 327° Northwest 444 511 34,000  Level FlightAware ADS-B
Wed 11:25:57 PM -30.7260 148.3130 327° Northwest 444 511 34,000  Level FlightAware ADS-B
Wed 11:26:55 PM -30.6330 148.2410 326° Northwest 444 511 34,000 -67 Level FlightAware ADS-B
Wed 11:27:27 PM -30.5675 148.1924 326° Northwest 439 505 33,900  Descending Aus ATC (RADAR)
Wed 11:27:31 PM -30.5810 148.2000 326° Northwest 444 511 34,000  Climbing FlightAware ADS-B
Wed 11:28:04 PM -30.5049 148.1447 326° Northwest 444 511 33,900  Descending Aus ATC (RADAR)
Wed 11:28:12 PM -30.4990 148.1390 326° Northwest 446 513 34,000 136 Climbing FlightAware ADS-B
Wed 11:28:48 PM -30.4470 148.0980 326° Northwest 446 513 34,000  Level FlightAware ADS-B
Wed 11:29:28 PM -30.3670 148.0400 328° Northwest 442 509 34,000  Level FlightAware ADS-B
Wed 11:30:06 PM -30.3130 147.9980 326° Northwest 442 509 34,000  Level FlightAware ADS-B
Wed 11:30:43 PM -30.2590 147.9560 326° Northwest 442 509 34,000 -44 Level FlightAware ADS-B
Wed 11:31:08 PM -30.1880 147.9070 329° Northwest 34,000 -61 Level FlightAware ADS-B
Wed 11:32:21 PM -30.0542 147.8057 329° Northwest 451 519 33,900 -61 Descending Aus ATC (RADAR)
Wed 11:32:46 PM -30.0097 147.7728 327° Northwest 451 519 33,900  Level Aus ATC (RADAR)
Wed 11:33:21 PM -29.9474 147.7272 328° Northwest 451 519 33,900  Level Aus ATC (RADAR)
Wed 11:34:31 PM -29.8250 147.6361 327° Northwest 450 518 33,900  Level Aus ATC (RADAR)
Wed 11:35:01 PM -29.7725 147.5972 327° Northwest 447 514 33,900  Level Aus ATC (RADAR)
Wed 11:35:06 PM -29.7638 147.5908 328° Northwest 447 514 33,900 Level Aus ATC (RADAR)
Wed 11:38:48 PM -29.3678 147.2989 327° Northwest 34,000 Climbing Aus ATC (Calculated)
Wed 11:39:37 PM -29.2989 147.2484 327° Northwest 34,000  Level Aus ATC (Calculated)
Wed 11:40:02 PM -29.2321 147.1995 327° Northwest 34,000  Level Aus ATC (Calculated)
Wed 11:42:00 PM -29.0185 147.0373 326° Northwest  Level Estimated
Wed 11:42:22 PM -28.9731 147.0107 327° Northwest 34,000  Level Aus ATC (Calculated)
Wed 11:44:00 PM -28.7956 146.8766 326° Northwest  Level Estimated
Wed 11:44:56 PM -28.7463 146.8463 327° Northwest 34,000  Level Aus ATC (Calculated)
Wed 11:45:00 PM -28.6868 146.7947 327° Northwest  Level Estimated
Wed 11:46:00 PM -28.6302 146.7590 327° Northwest  Level Estimated
Wed 11:47:00 PM -28.5214 146.6774 327° Northwest  Level Estimated
Wed 11:48:00 PM -28.4125 146.5959 327° Northwest  Level Estimated
Wed 11:49:00 PM -28.3036 146.5146 327° Northwest  Level Estimated
Wed 11:49:56 PM -28.2493 146.4890 326° Northwest 34,000  Level Aus ATC (Calculated)
Wed 11:50:00 PM -28.1946 146.4335 327° Northwest  Level Estimated
Wed 11:51:00 PM -28.1331 146.4025 327° Northwest  Level Estimated
Wed 11:52:00 PM -28.0240 146.3216 327° Northwest  Level Estimated
Wed 11:53:00 PM -27.9150 146.2408 327° Northwest  Level Estimated
Wed 11:54:00 PM -27.8059 146.1603 327° Northwest  Level Estimated
Wed 11:54:55 PM -27.7701 146.1482 326° Northwest 34,000  Level Aus ATC (Calculated)
Wed 11:55:00 PM -27.6967 146.0798 327° Northwest  Level Estimated
Wed 11:56:00 PM -27.6518 146.0611 327° Northwest  Level Estimated
Wed 11:57:00 PM -27.5426 145.9809 327° Northwest  Level Estimated
Wed 11:58:00 PM -27.4334 145.9008 327° Northwest  Level Estimated
Wed 11:59:00 PM -27.3241 145.8209 327° Northwest  Level Estimated
Wed 11:59:35 PM -27.3072 145.8224 325° Northwest 34,000  Level Aus ATC (Calculated)
Thu 12:00:00 AM -27.2147 145.7412 327° Northwest  Level Estimated
Thu 12:01:00 AM -27.1523 145.7095 327° Northwest  Level Estimated
Thu 12:02:00 AM -27.0429 145.6300 327° Northwest  Level Estimated
Thu 12:03:00 AM -26.9334 145.5506 327° Northwest  Level Estimated
Thu 12:04:00 AM -26.8239 145.4713 327° Northwest  Level Estimated
Thu 12:04:29 AM -26.7626 145.3895 327° Northwest 34,000  Level Aus ATC (Calculated)
Thu 12:04:40 AM -26.6290 145.2930 327° Northwest 450 518 34,000  Level FlightAware ADS-B
Thu 12:05:16 AM -26.5670 145.2430 327° Northwest 450 518 34,000  Level FlightAware ADS-B
Thu 12:05:48 AM -26.5140 145.2010 325° Northwest 452 520 34,000  Level FlightAware ADS-B
Thu 12:06:24 AM -26.4530 145.1520 324° Northwest 451 519 34,000  Level FlightAware ADS-B
Thu 12:06:59 AM -26.3940 145.1050 324° Northwest 452 520 34,000  Level FlightAware ADS-B
Thu 12:07:36 AM -26.3290 145.0530 324° Northwest 451 519 34,000  Level FlightAware ADS-B
Thu 12:08:12 AM -26.2680 145.0050 325° Northwest 450 518 34,000  Level FlightAware ADS-B
Thu 12:08:30 AM -26.3138 145.0367 326° Northwest 34,000  Level Aus ATC (Calculated)
Thu 12:08:34 AM -26.3138 145.0367 326° Northwest 34,000  Level Aus ATC (Calculated)
Thu 12:08:44 AM -26.2140 144.9620 325° Northwest 450 518 34,000 261 Level FlightAware ADS-B
Thu 12:09:20 AM -26.1510 144.9120 325° Northwest 455 524 34,200 514 Climbing FlightAware ADS-B
Thu 12:09:54 AM -26.0930 144.8660 325° Northwest 453 521 34,600 592 Climbing FlightAware ADS-B
Thu 12:10:31 AM -26.0310 144.8170 325° Northwest 453 521 34,900 514 Climbing FlightAware ADS-B
Thu 12:11:04 AM -25.9750 144.7730 325° Northwest 453 521 35,200 476 Climbing FlightAware ADS-B
Thu 12:11:14 AM -26.0517 144.8321 325° Northwest 34,000 400 Descending Aus ATC (Calculated)
Thu 12:11:34 AM -25.9220 144.7310 325° Northwest 454 522 35,400 1,588 Climbing FlightAware ADS-B
Thu 12:12:22 AM -25.8400 144.6660 324° Northwest 453 521 35,800 424 Climbing FlightAware ADS-B
Thu 12:12:59 AM -25.7770 144.6170 325° Northwest 453 521 36,000 176 Climbing FlightAware ADS-B
Thu 12:13:30 AM -25.7240 144.5750 324° Northwest 453 521 36,000  Level FlightAware ADS-B
Thu 12:14:08 AM -25.6600 144.5250 325° Northwest 451 519 36,000  Level FlightAware ADS-B
Thu 12:14:44 AM -25.5980 144.4760 325° Northwest 452 520 36,000  Level FlightAware ADS-B
Thu 12:15:15 AM -25.5460 144.4350 325° Northwest 452 520 36,000  Level FlightAware ADS-B
Thu 12:15:52 AM -25.4800 144.3840 325° Northwest 454 522 36,000  Level FlightAware ADS-B
Thu 12:16:13 AM -25.5393 144.4303 325° Northwest 34,000  Descending Aus ATC (Calculated)
Thu 12:16:27 AM -25.4230 144.3390 325° Northwest 454 522 36,000 2,353 Climbing FlightAware ADS-B
Thu 12:16:35 AM -25.4861 144.3887 325° Northwest 34,000  Descending Aus ATC (Calculated)
Thu 12:17:04 AM -25.3550 144.2870 325° Northwest 455 524 36,000 1,967 Climbing FlightAware ADS-B
Thu 12:17:36 AM -25.3000 144.2440 325° Northwest 454 522 36,000  Level FlightAware ADS-B
Thu 12:18:12 AM -25.2400 144.1970 325° Northwest 454 522 36,000  Level FlightAware ADS-B
Thu 12:18:48 AM -25.1770 144.1480 325° Northwest 452 520 36,000  Level FlightAware ADS-B
Thu 12:19:20 AM -25.1220 144.1050 325° Northwest 451 519 36,000  Level FlightAware ADS-B
Thu 12:19:56 AM -25.0600 144.0570 325° Northwest 449 517 36,000  Level FlightAware ADS-B
Thu 12:20:32 AM -24.9990 144.0100 325° Northwest 448 516 36,000  Level FlightAware ADS-B
Thu 12:21:06 AM -24.9400 143.9650 325° Northwest 448 516 36,000  Level FlightAware ADS-B
Thu 12:21:13 AM -25.0604 144.0575 325° Northwest 34,000  Descending Aus ATC (Calculated)
Thu 12:21:42 AM -24.8800 143.9180 325° Northwest 448 516 36,000 1,875 Climbing FlightAware ADS-B
Thu 12:22:17 AM -24.8210 143.8720 325° Northwest 449 517 36,000  Level FlightAware ADS-B
Thu 12:22:54 AM -24.7570 143.8240 326° Northwest 450 518 36,000  Level FlightAware ADS-B
Thu 12:23:26 AM -24.7030 143.7820 325° Northwest 452 520 36,000  Level FlightAware ADS-B
Thu 12:24:02 AM -24.6410 143.7340 325° Northwest 453 521 36,000  Level FlightAware ADS-B
Thu 12:24:38 AM -24.5790 143.6860 325° Northwest 454 522 36,000  Level FlightAware ADS-B
Thu 12:25:14 AM -24.5160 143.6380 325° Northwest 454 522 36,000  Level FlightAware ADS-B
Thu 12:25:46 AM -24.4610 143.5960 325° Northwest 455 524 36,000  Level FlightAware ADS-B
Thu 12:26:12 AM -24.5271 143.6467 325° Northwest 34,000  Descending Aus ATC (Calculated)
Thu 12:26:23 AM -24.3970 143.5470 325° Northwest 455 524 36,000 2,553 Climbing FlightAware ADS-B
Thu 12:26:59 AM -24.3340 143.4990 325° Northwest 455 524 36,000  Level FlightAware ADS-B
Thu 12:27:31 AM -24.2780 143.4560 325° Northwest 456 525 36,000  Level FlightAware ADS-B
Thu 12:27:47 AM -24.3669 143.5241 325° Northwest 34,000  Descending Aus ATC (Calculated)
Thu 12:28:07 AM -24.2170 143.4100 325° Northwest 458 527 36,000 2,143 Climbing FlightAware ADS-B
Thu 12:28:43 AM -24.1530 143.3610 325° Northwest 459 528 36,000  Level FlightAware ADS-B
Thu 12:29:17 AM -24.0930 143.3160 326° Northwest 459 528 36,000  Level FlightAware ADS-B
Thu 12:29:53 AM -24.0310 143.2680 325° Northwest 459 528 36,000  Level FlightAware ADS-B
Thu 12:30:28 AM -23.9700 143.2220 325° Northwest 459 528 36,000  Level FlightAware ADS-B
Thu 12:31:00 AM -23.9130 143.1790 325° Northwest 457 526 36,000  Level FlightAware ADS-B
Thu 12:31:37 AM -23.8510 143.1320 325° Northwest 456 525 36,000  Level FlightAware ADS-B
Thu 12:32:14 AM -23.7850 143.0820 325° Northwest 456 525 36,000  Level FlightAware ADS-B
Thu 12:32:42 AM -23.8394 143.1233 325° Northwest 34,000  Descending Aus ATC (Calculated)
Thu 12:32:46 AM -23.7290 143.0400 325° Northwest 456 525 36,000 3,000 Climbing FlightAware ADS-B
Thu 12:33:22 AM -23.6670 142.9930 325° Northwest 457 526 36,000  Level FlightAware ADS-B
Thu 12:33:55 AM -23.6090 142.9490 325° Northwest 458 527 36,000  Level FlightAware ADS-B
Thu 12:34:32 AM -23.5440 142.9000 325° Northwest 459 528 36,000  Level FlightAware ADS-B
Thu 12:35:08 AM -23.4810 142.8530 326° Northwest 459 528 36,000  Level FlightAware ADS-B
Thu 12:35:40 AM -23.4250 142.8110 325° Northwest 459 528 36,000  Level FlightAware ADS-B
Thu 12:36:17 AM -23.3610 142.7630 325° Northwest 458 527 36,000  Level FlightAware ADS-B
Thu 12:36:52 AM -23.2980 142.7160 326° Northwest 458 527 36,000  Level FlightAware ADS-B
Thu 12:37:38 AM -23.2170 142.6560 326° Northwest 459 528 36,000  Level FlightAware ADS-B
Thu 12:37:41 AM -23.3478 142.7533 325° Northwest 34,000  Descending Aus ATC (Calculated)
Thu 12:38:18 AM -23.1480 142.6040 326° Northwest 458 527 36,000 1,739 Climbing FlightAware ADS-B
Thu 12:38:50 AM -23.0910 142.5620 326° Northwest 457 526 36,000  Level FlightAware ADS-B
Thu 12:39:26 AM -23.0290 142.5150 325° Northwest 457 526 36,000  Level FlightAware ADS-B
Thu 12:40:02 AM -22.9650 142.4680 326° Northwest 457 526 36,000  Level FlightAware ADS-B
Thu 12:40:36 AM -22.9060 142.4240 326° Northwest 457 526 36,000  Level FlightAware ADS-B
Thu 12:41:08 AM -22.8520 142.3830 325° Northwest 457 526 36,000  Level FlightAware ADS-B
Thu 12:42:02 AM -22.7570 142.3130 326° Northwest 458 527 36,000  Level FlightAware ADS-B
Thu 12:42:06 AM -22.8553 142.3861 326° Northwest 34,000  Descending Aus ATC (Calculated)
Thu 12:42:34 AM -22.6990 142.2700 326° Northwest 459 528 36,000 1,875 Climbing FlightAware ADS-B
Thu 12:42:41 AM -22.7849 142.3339 326° Northwest 34,000  Descending Aus ATC (Calculated)
Thu 12:43:10 AM -22.6350 142.2230 326° Northwest 461 531 36,000 1,846 Climbing FlightAware ADS-B
Thu 12:43:46 AM -22.5710 142.1760 326° Northwest 461 531 36,000  Level FlightAware ADS-B
Thu 12:44:16 AM -22.6440 142.2295 326° Northwest 34,000  Descending Aus ATC (Calculated)
Thu 12:44:20 AM -22.5120 142.1320 326° Northwest 461 531 36,000 3,000 Climbing FlightAware ADS-B
Thu 12:44:56 AM -22.4480 142.0850 326° Northwest 460 529 36,000  Level FlightAware ADS-B
Thu 12:45:28 AM -22.3910 142.0430 326° Northwest 460 529 36,000  Level FlightAware ADS-B
Thu 12:46:04 AM -22.3280 141.9960 325° Northwest 461 531 36,000  Level FlightAware ADS-B
Thu 12:46:06 AM -22.4325 142.0734 326° Northwest 34,000  Descending Aus ATC (Calculated)
Thu 12:46:41 AM -22.2630 141.9490 325° Northwest 462 532 36,000 1,714 Climbing FlightAware ADS-B
Thu 12:47:16 AM -22.2010 141.9030 326° Northwest 462 532 36,000  Level FlightAware ADS-B
Thu 12:47:48 AM -22.1450 141.8620 326° Northwest 462 532 36,000  Level FlightAware ADS-B
Thu 12:47:54 AM -22.2208 141.9178 326° Northwest 34,000  Descending Aus ATC (Calculated)
Thu 12:48:24 AM -22.0810 141.8160 326° Northwest 462 532 36,000 1,818 Climbing FlightAware ADS-B
Thu 12:49:00 AM -22.0170 141.7680 325° Northwest 462 532 36,000  Level FlightAware ADS-B
Thu 12:49:05 AM -22.0796 141.8143 326° Northwest 34,000  Descending Aus ATC (Calculated)
Thu 12:49:36 AM -21.9520 141.7210 325° Northwest 462 532 36,000 1,905 Climbing FlightAware ADS-B
Thu 12:50:08 AM -21.8960 141.6800 326° Northwest 462 532 36,000  Level FlightAware ADS-B
Thu 12:50:44 AM -21.8320 141.6330 326° Northwest 463 533 36,000  Level FlightAware ADS-B
Thu 12:51:20 AM -21.7670 141.5860 326° Northwest 464 534 36,000  Level FlightAware ADS-B
Thu 12:51:57 AM -21.7020 141.5390 326° Northwest 465 535 36,000  Level FlightAware ADS-B
Thu 12:52:28 AM -21.6450 141.4980 326° Northwest 466 536 36,000  Level FlightAware ADS-B
Thu 12:53:04 AM -21.5800 141.4500 326° Northwest 467 537 36,000  Level FlightAware ADS-B
Thu 12:53:40 AM -21.5160 141.4030 326° Northwest 468 539 36,000  Level FlightAware ADS-B
Thu 12:54:00 AM -21.5951 141.4611 326° Northwest 34,000  Descending Aus ATC (Calculated)
Thu 12:54:12 AM -21.4580 141.3620 327° Northwest 468 539 36,000 2,400 Climbing FlightAware ADS-B
Thu 12:54:50 AM -21.3900 141.3120 327° Northwest 468 539 36,000  Level FlightAware ADS-B
Thu 12:55:25 AM -21.3280 141.2670 326° Northwest 468 539 36,000  Level FlightAware ADS-B
Thu 12:56:02 AM -21.2610 141.2190 326° Northwest 468 539 36,000  Level FlightAware ADS-B
Thu 12:56:32 AM -21.2060 141.1790 326° Northwest 469 540 36,000  Level FlightAware ADS-B
Thu 12:57:10 AM -21.1370 141.1300 326° Northwest 469 540 36,000  Level FlightAware ADS-B
Thu 12:57:42 AM -21.0800 141.0890 326° Northwest 469 540 36,000  Level FlightAware ADS-B
Thu 12:58:20 AM -21.0150 141.0420 326° Northwest 469 540 36,000  Level FlightAware ADS-B
Thu 12:58:56 AM -20.9450 140.9920 326° Northwest 470 541 36,000  Level FlightAware ADS-B
Thu 12:58:59 AM -21.0621 141.0759 326° Northwest 34,000  Descending Aus ATC (Calculated)
Thu 12:59:32 AM -20.8810 140.9460 326° Northwest 471 542 36,000 1,846 Climbing FlightAware ADS-B
Thu 01:00:04 AM -20.8240 140.9050 326° Northwest 471 542 36,000  Level FlightAware ADS-B
Thu 01:00:42 AM -20.7530 140.8540 326° Northwest 472 543 36,000  Level FlightAware ADS-B
Thu 01:01:14 AM -20.6950 140.8130 327° Northwest 473 544 36,000  Level FlightAware ADS-B
Thu 01:01:46 AM -20.6380 140.7720 326° Northwest 472 543 36,000  Level FlightAware ADS-B
Thu 01:02:24 AM -20.5710 140.7240 326° Northwest 472 543 36,000  Level FlightAware ADS-B
Thu 01:03:00 AM -20.5020 140.6750 326° Northwest 472 543 36,000  Level FlightAware ADS-B
Thu 01:03:33 AM -20.4430 140.6330 326° Northwest 472 543 36,000  Level FlightAware ADS-B
Thu 01:03:59 AM -20.5281 140.6934 326° Northwest 34,000  Descending Aus ATC (Calculated)
Thu 01:04:09 AM -20.3780 140.5860 326° Northwest 472 543 36,000 2,727 Climbing FlightAware ADS-B
Thu 01:04:43 AM -20.3160 140.5420 326° Northwest 472 543 36,000  Level FlightAware ADS-B
Thu 01:05:20 AM -20.2480 140.4940 326° Northwest 471 542 36,000  Level FlightAware ADS-B
Thu 01:05:56 AM -20.1820 140.4470 326° Northwest 471 542 36,000  Level FlightAware ADS-B
Thu 01:06:31 AM -20.1190 140.4030 327° Northwest 472 543 36,000  Level FlightAware ADS-B
Thu 01:06:39 AM -20.2311 140.4820 325° Northwest 34,000  Descending Aus ATC (Calculated)
Thu 01:07:04 AM -20.0610 140.3560 327° Northwest 472 543 36,000 2,000 Climbing FlightAware ADS-B
Thu 01:07:39 AM -20.0000 140.3070 323° Northwest 473 544 36,000  Level FlightAware ADS-B
Thu 01:08:16 AM -19.9340 140.2530 322° Northwest 472 543 36,000  Level FlightAware ADS-B
Thu 01:08:52 AM -19.8730 140.2040 323° Northwest 472 543 36,000  Level FlightAware ADS-B
Thu 01:09:23 AM -19.8190 140.1600 323° Northwest 473 544 36,000  Level FlightAware ADS-B
Thu 01:10:00 AM -19.7550 140.1070 322° Northwest 474 545 36,000  Level FlightAware ADS-B
Thu 01:10:36 AM -19.6900 140.0550 323° Northwest 475 547 36,000  Level FlightAware ADS-B
Thu 01:11:27 AM -19.6030 139.9850 323° Northwest 475 547 36,000  Level FlightAware ADS-B
Thu 01:11:33 AM -19.7589 140.1110 323° Northwest 34,000  Descending Aus ATC (Calculated)
Thu 01:11:58 AM -19.5480 139.9400 323° Northwest 475 547 36,000 1,905 Climbing FlightAware ADS-B
Thu 01:12:36 AM -19.4800 139.8860 323° Northwest 476 548 36,000  Level FlightAware ADS-B
Thu 01:13:09 AM -19.4230 139.8400 323° Northwest 476 548 36,000  Level FlightAware ADS-B
Thu 01:13:46 AM -19.3570 139.7870 323° Northwest 478 550 36,000  Level FlightAware ADS-B
Thu 01:14:22 AM -19.2940 139.7360 323° Northwest 478 550 36,000  Level FlightAware ADS-B
Thu 01:14:54 AM -19.2370 139.6900 323° Northwest 480 552 36,000  Level FlightAware ADS-B
Thu 01:15:28 AM -19.3461 139.7780 323° Northwest 34,000  Descending Aus ATC (Calculated)
Thu 01:15:30 AM -19.1730 139.6390 323° Northwest 480 552 36,000 3,158 Climbing FlightAware ADS-B
Thu 01:16:06 AM -19.1080 139.5870 323° Northwest 481 554 36,000  Level FlightAware ADS-B
Thu 01:16:33 AM -19.2280 139.6832 323° Northwest 34,000  Descending Aus ATC (Calculated)
Thu 01:16:38 AM -19.0520 139.5420 323° Northwest 482 555 36,000 2,857 Climbing FlightAware ADS-B
Thu 01:17:15 AM -18.9870 139.4900 323° Northwest 482 555 36,000  Level FlightAware ADS-B
Thu 01:17:50 AM -18.9240 139.4400 323° Northwest 481 554 36,000  Level FlightAware ADS-B
Thu 01:18:27 AM -18.8580 139.3870 323° Northwest 481 554 36,000  Level FlightAware ADS-B
Thu 01:18:58 AM -18.8020 139.3430 323° Northwest 481 554 36,000  Level FlightAware ADS-B
Thu 01:19:34 AM -18.7390 139.2920 323° Northwest 480 552 36,000  Level FlightAware ADS-B
Thu 01:20:08 AM -18.6780 139.2430 323° Northwest 479 551 36,000  Level FlightAware ADS-B
Thu 01:20:47 AM -18.6090 139.1890 323° Northwest 479 551 36,000  Level FlightAware ADS-B
Thu 01:21:18 AM -18.5530 139.1450 323° Northwest 480 552 36,000  Level FlightAware ADS-B
Thu 01:21:33 AM -18.6960 139.2582 323° Northwest 34,000  Descending Aus ATC (Calculated)
Thu 01:21:54 AM -18.4900 139.0940 322° Northwest 480 552 36,000 2,105 Climbing FlightAware ADS-B
Thu 01:22:30 AM -18.4250 139.0430 322° Northwest 479 551 36,000  Level FlightAware ADS-B
Thu 01:23:06 AM -18.3610 138.9930 323° Northwest 478 550 36,000  Level FlightAware ADS-B
Thu 01:23:40 AM -18.3020 138.9450 322° Northwest 479 551 36,000  Level FlightAware ADS-B
Thu 01:24:16 AM -18.2380 138.8950 323° Northwest 478 550 36,000  Level FlightAware ADS-B
Thu 01:24:27 AM -18.4001 139.0232 323° Northwest 34,000  Descending Aus ATC (Calculated)
Thu 01:24:49 AM -18.1800 138.8490 323° Northwest 477 549 36,000 2,105 Climbing FlightAware ADS-B
Thu 01:25:24 AM -18.1170 138.7990 323° Northwest 477 549 36,000  Level FlightAware ADS-B
Thu 01:26:00 AM -18.0540 138.7490 323° Northwest 478 550 36,000  Level FlightAware ADS-B
Thu 01:26:35 AM -17.9930 138.7010 323° Northwest 479 551 36,000  Level FlightAware ADS-B
Thu 01:27:08 AM -17.9330 138.6540 323° Northwest 479 551 36,000  Level FlightAware ADS-B
Thu 01:27:40 AM -17.8780 138.6110 323° Northwest 479 551 36,000  Level FlightAware ADS-B
Thu 01:28:19 AM -17.8190 138.5650 323° Northwest 479 551 36,000  Level FlightAware ADS-B
Thu 01:28:55 AM -17.7650 138.5220 323° Northwest 479 551 36,000  Level FlightAware ADS-B
Thu 01:29:22 AM -17.8664 138.6021 323° Northwest 34,000  Descending Aus ATC (Calculated)
Thu 01:29:31 AM -17.7110 138.4790 323° Northwest 479 551 36,000 2,667 Climbing FlightAware ADS-B
Thu 01:30:07 AM -17.6570 138.4360 323° Northwest 479 551 36,000  Level FlightAware ADS-B
Thu 01:30:45 AM -17.6000 138.3910 323° Northwest 479 551 36,000  Level FlightAware ADS-B
Thu 01:31:21 AM -17.5450 138.3480 323° Northwest 479 551 36,000  Level FlightAware ADS-B
Thu 01:31:57 AM -17.4910 138.3050 323° Northwest 479 551 36,000  Level FlightAware ADS-B
Thu 01:32:33 AM -17.4370 138.2630 323° Northwest 479 551 36,000  Level FlightAware ADS-B
Thu 01:33:09 AM -17.3830 138.2200 323° Northwest 479 551 36,000  Level FlightAware ADS-B
Thu 01:33:46 AM -17.3270 138.1760 323° Northwest 479 551 36,000  Level FlightAware ADS-B
Thu 01:34:21 AM -17.2872 138.1487 313° West 34,000  Descending Aus ATC (Calculated)
Thu 01:34:22 AM -17.2730 138.1330 323° Northwest 479 551 36,000 3,243 Climbing FlightAware ADS-B
Thu 01:34:58 AM -17.2190 138.0900 323° Northwest 479 551 36,000  Level FlightAware ADS-B
Thu 01:35:34 AM -17.1650 138.0480 323° Northwest 479 551 36,000  Level FlightAware ADS-B
Thu 01:36:10 AM -17.1110 138.0050 323° Northwest 479 551 36,000  Level FlightAware ADS-B
Thu 01:36:46 AM -17.0570 137.9620 323° Northwest 479 551 36,000  Level FlightAware ADS-B
Thu 01:37:23 AM -17.0010 137.9180 323° Northwest 479 551 36,000  Level FlightAware ADS-B
Thu 01:39:21 AM -16.7515 137.7327 323° Northwest 34,000  Descending Aus ATC (Calculated)
Thu 01:41:00 AM -16.5787 137.5992 323° Northwest  Level FlightAware Approximate
Thu 01:42:00 AM -16.4739 137.5183 323° Northwest  Level FlightAware Approximate
Thu 01:42:39 AM -16.3939 137.4567 323° Northwest 34,000  Level Aus ATC (Calculated)
Thu 01:44:00 AM -16.2524 137.3478 324° Northwest  Level FlightAware Approximate
Thu 01:44:30 AM -16.1703 137.2846 323° Northwest 34,000  Level Aus ATC (Calculated)
Thu 01:46:00 AM -16.0129 137.1639 324° Northwest  Level FlightAware Approximate
Thu 01:46:40 AM -15.9464 137.1130 323° Northwest 34,000  Level Aus ATC (Calculated)
Thu 01:47:00 AM -15.9080 137.0836 324° Northwest  Level FlightAware Approximate
Thu 01:48:00 AM -15.8065 137.0059 324° Northwest  Level FlightAware Approximate
Thu 01:49:00 AM -15.7015 136.9257 324° Northwest  Level FlightAware Approximate
Thu 01:49:25 AM -15.6329 136.8733 323° Northwest 34,000  Level Aus ATC (Calculated)
Thu 01:50:55 AM -15.4984 136.7708 323° Northwest 34,000 236 Level Aus ATC (Calculated)
Thu 01:51:00 AM -15.4665 136.7466 324° Northwest  Level FlightAware Approximate
Thu 01:52:00 AM -15.3845 136.6842 324° Northwest  Level FlightAware Approximate
Thu 01:53:00 AM -15.2794 136.6043 324° Northwest  Level FlightAware Approximate
Thu 01:54:00 AM -15.3845 136.6842 144° Southeast  Level FlightAware Approximate
Thu 01:55:00 AM -15.2794 136.6043 324° Northwest  Level FlightAware Approximate
Thu 01:55:49 AM -14.9642 136.3654 322° Northwest 34,000  Level Aus ATC (Calculated)
Thu 01:57:00 AM -14.8279 136.2906 324° Northwest  Level Estimated
Thu 01:57:54 AM -14.6140 136.0853 324° Northwest 481 554 36,000  Level Aus ATC (RADAR)
Thu 01:58:19 AM -14.5673 136.0539 327° Northwest 475 547  Descending Aus ATC (RADAR)
Thu 01:58:59 AM -14.4951 135.9960 322° Northwest 493 567 36,000 25,412 Climbing Aus ATC (RADAR)
Thu 01:59:44 AM -14.4097 135.9352 325° Northwest 487 560 36,000  Level Aus ATC (RADAR)
Thu 02:01:08 AM -14.2525 135.8180 324° Northwest 487 560 36,000  Level Aus ATC (RADAR)
Thu 02:01:33 AM -14.2069 135.7843 324° Northwest 484 557 36,000  Level Aus ATC (RADAR)
Thu 02:02:38 AM -14.0879 135.6950 324° Northwest 482 555 36,000  Level Aus ATC (RADAR)
Thu 02:03:03 AM -14.0401 135.6599 325° Northwest 489 563 36,000  Level Aus ATC (RADAR)
Thu 02:03:28 AM -13.9931 135.6253 324° Northwest 491 565 36,000  Level Aus ATC (RADAR)
Thu 02:04:03 AM -13.9277 135.5762 324° Northwest 492 566 36,000  Level Aus ATC (RADAR)
Thu 02:04:48 AM -13.8434 135.5148 325° Northwest 507 583 36,000  Level Aus ATC (RADAR)
Thu 02:05:23 AM -13.7780 135.4669 325° Northwest 498 573 36,000  Level Aus ATC (RADAR)
Thu 02:06:13 AM -13.6879 135.3997 324° Northwest 482 555  Descending Aus ATC (RADAR)
Thu 02:06:38 AM -13.6412 135.3657 325° Northwest 485 558 36,000 27,000 Climbing Aus ATC (RADAR)
Thu 02:07:33 AM -13.5397 135.2901 324° Northwest 485 558 36,000  Level Aus ATC (RADAR)
Thu 02:08:03 AM -13.4851 135.2492 324° Northwest 482 555 36,000  Level Aus ATC (RADAR)
Thu 02:08:23 AM -13.4480 135.2220 324° Northwest 482 555 36,000  Level Aus ATC (RADAR)
Thu 02:08:58 AM -13.3836 135.1744 324° Northwest 482 555 36,000  Level Aus ATC (RADAR)
Thu 02:09:43 AM -13.2977 135.1130 325° Northwest 487 560 36,000  Level Aus ATC (RADAR)
Thu 02:10:23 AM -13.2250 135.0586 324° Northwest 484 557 36,000  Level Aus ATC (RADAR)
Thu 02:11:12 AM -13.1337 134.9917 324° Northwest 477 549 36,000  Level Aus ATC (RADAR)
Thu 02:11:27 AM -13.1063 134.9722 325° Northwest 477 549 36,000  Level Aus ATC (RADAR)
Thu 02:12:02 AM -13.0408 134.9246 325° Northwest 480 552 36,000  Level Aus ATC (RADAR)
Thu 02:13:07 AM -12.9083 134.8286 325° Northwest 509 586 36,000  Level Aus ATC (RADAR)
Thu 02:13:22 AM -12.8816 134.8093 325° Northwest 494 568 36,000  Level Aus ATC (RADAR)
Thu 02:13:57 AM -12.8201 134.7610 323° Northwest 474 545 36,000  Level Aus ATC (RADAR)
Thu 02:14:47 AM -12.7284 134.6950 325° Northwest 476 548 36,000  Level Aus ATC (RADAR)
Thu 02:15:22 AM -12.6643 134.6481 325° Northwest 475 547 36,000  Level Aus ATC (RADAR)
Thu 02:16:12 AM -12.5747 134.5821 324° Northwest 472 543 36,000  Level Aus ATC (RADAR)
Thu 02:16:37 AM -12.5290 134.5480 324° Northwest 472 543 36,000  Level Aus ATC (RADAR)
Thu 02:17:12 AM -12.4664 134.5022 324° Northwest 472 543 36,000  Level Aus ATC (RADAR)
Thu 02:18:07 AM -12.3665 134.4285 324° Northwest 474 545 36,000  Level Aus ATC (RADAR)
Thu 02:18:32 AM -12.3217 134.3950 324° Northwest 472 543 36,000  Level Aus ATC (RADAR)
Thu 02:19:12 AM -12.2484 134.3417 325° Northwest 471 542 36,000  Level Aus ATC (RADAR)
Thu 02:19:26 AM -12.2240 134.3230 325° Northwest 475 547 36,000  Level FlightAware ADS-B
Thu 02:20:05 AM -12.1650 134.2780 323° Northwest 475 547 36,000  Level FlightAware ADS-B
Thu 02:20:41 AM -12.1110 134.2370 323° Northwest 475 547 36,000 -91 Level FlightAware ADS-B
Thu 02:21:11 AM -12.0315 134.1812 323° Northwest 463 533 35,900  Descending Aus ATC (RADAR)
Thu 02:21:18 AM -12.0560 134.1940 323° Northwest 475 547 36,000  Climbing FlightAware ADS-B
Thu 02:22:01 AM -11.9400 134.1149 323° Northwest 466 536 35,900  Descending Aus ATC (RADAR)
Thu 02:22:06 AM -11.9340 134.1100 323° Northwest 475 547 36,000 133 Climbing FlightAware ADS-B
Thu 02:22:46 AM -11.8640 134.0600 325° Northwest 477 549 36,000  Level FlightAware ADS-B
Thu 02:23:16 AM -11.8080 134.0180 324° Northwest 475 547 36,000  Level FlightAware ADS-B
Thu 02:24:01 AM -11.7260 133.9580 324° Northwest 480 552 36,000  Level FlightAware ADS-B
Thu 02:24:43 AM -11.6580 133.9090 325° Northwest 480 552 36,000  Level FlightAware ADS-B
Thu 02:25:16 AM -11.5910 133.8590 324° Northwest 480 552 36,000  Level FlightAware ADS-B
Thu 02:25:51 AM -11.5300 133.8150 325° Northwest 480 552 36,000  Level FlightAware ADS-B
Thu 02:26:26 AM -11.4620 133.7650 324° Northwest 475 547 36,000  Level FlightAware ADS-B
Thu 02:27:01 AM -11.3970 133.7180 325° Northwest 476 548 36,000  Level FlightAware ADS-B
Thu 02:27:36 AM -11.3310 133.6700 325° Northwest 477 549 36,000 -92 Level FlightAware ADS-B
Thu 02:28:06 AM -11.2776 133.6310 325° Northwest 470 541 35,900  Descending Aus ATC (RADAR)
Thu 02:28:11 AM -11.2690 133.6250 325° Northwest 477 549 36,000 150 Climbing FlightAware ADS-B
Thu 02:28:46 AM -11.2060 133.5790 324° Northwest 478 550 36,000  Level FlightAware ADS-B
Thu 02:29:21 AM -11.1400 133.5310 324° Northwest 479 551 36,000 -92 Level FlightAware ADS-B
Thu 02:29:51 AM -11.0848 133.4910 324° Northwest 477 549 35,900  Descending Aus ATC (RADAR)
Thu 02:29:56 AM -11.0810 133.4880 324° Northwest 480 552 36,000  Climbing FlightAware ADS-B
Thu 02:30:26 AM -11.0216 133.4449 324° Northwest 471 542 35,900  Descending Aus ATC (RADAR)
Thu 02:30:31 AM -11.0100 133.4370 324° Northwest 480 552 36,000 150 Climbing FlightAware ADS-B
Thu 02:31:06 AM -10.9460 133.3900 324° Northwest 480 552 36,000  Level FlightAware ADS-B
Thu 02:31:51 AM -10.8650 133.3310 324° Northwest 478 550 36,000  Level FlightAware ADS-B
Thu 02:32:26 AM -10.8000 133.2840 325° Northwest 477 549 36,000  Level FlightAware ADS-B
Thu 02:32:56 AM -10.7470 133.2460 325° Northwest 475 547 36,000  Level FlightAware ADS-B
Thu 02:33:31 AM -10.6820 133.1990 325° Northwest 480 552 36,000  Level FlightAware ADS-B
Thu 02:34:11 AM -10.6090 133.1460 324° Northwest 478 550 36,000  Level FlightAware ADS-B
Thu 02:34:41 AM -10.5610 133.1110 324° Northwest 480 552 36,000  Level FlightAware ADS-B
Thu 02:35:21 AM -10.4820 133.0530 324° Northwest 475 547 36,000  Level FlightAware ADS-B
Thu 02:35:56 AM -10.4200 133.0090 325° Northwest 475 547 36,000  Level FlightAware ADS-B
Thu 02:36:31 AM -10.3540 132.9610 324° Northwest 475 547 36,000  Level FlightAware ADS-B
Thu 02:37:06 AM -10.2950 132.9190 325° Northwest 474 545 36,000  Level FlightAware ADS-B
Thu 02:37:41 AM -10.2270 132.8690 324° Northwest 474 545 36,000  Level FlightAware ADS-B
Thu 02:38:11 AM -10.1720 132.8300 325° Northwest 473 544 36,000 -81 Level FlightAware ADS-B
Thu 02:38:55 AM -10.0936 132.7733 325° Northwest 465 535 35,900  Descending Aus ATC (RADAR)
Thu 02:38:56 AM -10.0900 132.7710 325° Northwest 473 544 36,000 167 Climbing FlightAware ADS-B
Thu 02:39:31 AM -10.0270 132.7250 324° Northwest 479 551 36,000  Level FlightAware ADS-B
Thu 02:40:06 AM -9.9630 132.6790 325° Northwest 473 544 36,000  Level FlightAware ADS-B
Thu 02:40:41 AM -9.9000 132.6340 325° Northwest 479 551 36,000 -81 Level FlightAware ADS-B
Thu 02:41:20 AM -9.8313 132.5846 325° Northwest 461 531 35,900  Descending Aus ATC (RADAR)
Thu 02:41:25 AM -9.8370 132.5870 325° Northwest 479 551 36,000 143 Climbing FlightAware ADS-B
Thu 02:42:02 AM -9.7810 132.5460 324° Northwest 479 551 36,000  Level FlightAware ADS-B
Thu 02:42:38 AM -9.7260 132.5050 324° Northwest 479 551 36,000  Level FlightAware ADS-B
Thu 02:43:14 AM -9.6710 132.4650 324° Northwest 479 551 36,000 -79 Level FlightAware ADS-B
Thu 02:43:54 AM -9.5534 132.3845 324° Northwest 459 528 35,900  Descending Aus ATC (RADAR)
Thu 02:44:01 AM -9.5430 132.3770 324° Northwest 473 544 36,000 130 Climbing FlightAware ADS-B
Thu 02:44:40 AM -9.4840 132.3340 324° Northwest 473 544 36,000  Level FlightAware ADS-B
Thu 02:45:16 AM -9.4300 132.2940 324° Northwest 473 544 36,000  Level FlightAware ADS-B
Thu 02:45:52 AM -9.3760 132.2540 324° Northwest 473 544 36,000  Level FlightAware ADS-B
Thu 02:46:26 AM -9.2810 132.1890 326° Northwest 474 545 36,000  Level FlightAware ADS-B
Thu 02:47:01 AM -9.2170 132.1430 325° Northwest 474 545 36,000  Level FlightAware ADS-B
Thu 02:47:44 AM -9.1570 132.0990 324° Northwest 473 544 36,000 -82 Level FlightAware ADS-B
Thu 02:48:14 AM -9.0875 132.0502 324° Northwest 458 527 35,900  Descending Aus ATC (RADAR)
Thu 02:48:21 AM -9.0740 132.0400 324° Northwest 473 544 36,000  Climbing FlightAware ADS-B
Thu 02:48:54 AM -9.0158 131.9985 324° Northwest 457 526 35,900  Descending Aus ATC (RADAR)
Thu 02:48:56 AM -9.0130 131.9970 324° Northwest 474 545 36,000 105 Climbing FlightAware ADS-B
Thu 02:49:51 AM -8.9290 131.9360 324° Northwest 474 545 36,000  Level FlightAware ADS-B
Thu 02:50:27 AM -8.8740 131.8960 324° Northwest 474 545 36,000  Level FlightAware ADS-B
Thu 02:51:04 AM -8.8190 131.8550 324° Northwest 474 545 36,000  Level FlightAware ADS-B
Thu 02:51:40 AM -8.7640 131.8150 324° Northwest 474 545 36,000  Level FlightAware ADS-B
Thu 02:52:16 AM -8.7100 131.7750 324° Northwest 474 545 36,000  Level FlightAware ADS-B
Thu 02:52:53 AM -8.6540 131.7340 324° Northwest 474 545 36,000  Level FlightAware ADS-B
Thu 02:53:29 AM -8.6000 131.6940 324° Northwest 474 545 36,000  Level FlightAware ADS-B
Thu 02:54:06 AM -8.5440 131.6530 324° Northwest 474 545 36,000  Level FlightAware ADS-B
Thu 02:54:42 AM -8.4900 131.6130 324° Northwest 474 545 36,000  Level FlightAware ADS-B
Thu 02:55:18 AM -8.4360 131.5730 324° Northwest 474 545 36,000  Level FlightAware ADS-B
Thu 02:55:54 AM -8.3810 131.5330 324° Northwest 474 545 36,000  Level FlightAware ADS-B
Thu 02:56:30 AM -8.3270 131.4940 324° Northwest 474 545 36,000  Level FlightAware ADS-B
Thu 02:57:07 AM -8.2710 131.4530 324° Northwest 474 545 36,000  Level FlightAware ADS-B
Thu 02:57:43 AM -8.2170 131.4130 324° Northwest 474 545 36,000  Level FlightAware ADS-B
Thu 02:58:19 AM -8.1630 131.3730 324° Northwest 474 545 36,000  Level FlightAware ADS-B
Thu 02:58:55 AM -8.1080 131.3330 324° Northwest 474 545 36,000 57 Level FlightAware ADS-B
Thu 03:01:00 AM -7.8857 131.1756 325° Northwest  Level FlightAware Approximate
Thu 03:02:00 AM -7.7790 131.1001 325° Northwest  Level FlightAware Approximate
Thu 03:03:00 AM -7.6722 131.0247 325° Northwest  Level FlightAware Approximate
Thu 03:04:00 AM -7.5654 130.9493 325° Northwest  Level FlightAware Approximate
Thu 03:05:00 AM -7.4587 130.8739 325° Northwest  Level FlightAware Approximate
Thu 03:06:00 AM -7.3519 130.7986 325° Northwest  Level FlightAware Approximate
Thu 03:07:00 AM -7.2451 130.7233 325° Northwest  Level FlightAware Approximate
Thu 03:08:00 AM -7.1383 130.6481 325° Northwest  Level FlightAware Approximate
Thu 03:09:00 AM -7.0315 130.5728 325° Northwest  Level FlightAware Approximate
Thu 03:10:00 AM -6.9246 130.4977 325° Northwest  Level FlightAware Approximate
Thu 03:11:00 AM -6.8178 130.4225 325° Northwest  Level FlightAware Approximate
Thu 03:12:00 AM -6.7109 130.3474 325° Northwest  Level FlightAware Approximate
Thu 03:13:00 AM -6.6041 130.2723 325° Northwest  Level FlightAware Approximate
Thu 03:14:00 AM -6.4972 130.1973 325° Northwest  Level FlightAware Approximate
Thu 03:15:00 AM -6.3903 130.1222 325° Northwest  Level FlightAware Approximate
Thu 03:16:00 AM -6.2834 130.0473 325° Northwest  Level FlightAware Approximate
Thu 03:17:00 AM -6.1765 129.9723 325° Northwest  Level FlightAware Approximate
Thu 03:18:00 AM -6.0696 129.8974 325° Northwest  Level FlightAware Approximate
Thu 03:19:00 AM -5.9626 129.8225 325° Northwest  Level FlightAware Approximate
Thu 03:20:00 AM -5.8557 129.7476 325° Northwest  Level FlightAware Approximate
Thu 03:21:00 AM -5.7487 129.6727 325° Northwest  Level FlightAware Approximate
Thu 03:22:00 AM -5.6418 129.5979 325° Northwest  Level FlightAware Approximate
Thu 03:23:00 AM -5.5348 129.5232 325° Northwest  Level FlightAware Approximate
Thu 03:24:00 AM -5.4278 129.4484 325° Northwest  Level FlightAware Approximate
Thu 03:25:00 AM -5.3208 129.3737 325° Northwest  Level FlightAware Approximate
Thu 03:26:00 AM -5.2138 129.2990 325° Northwest  Level FlightAware Approximate
Thu 03:27:00 AM -5.1068 129.2243 325° Northwest  Level FlightAware Approximate
Thu 03:28:00 AM -4.9998 129.1496 325° Northwest  Level FlightAware Approximate
Thu 03:29:00 AM -4.8928 129.0750 325° Northwest  Level FlightAware Approximate
Thu 03:30:00 AM -4.7857 129.0004 325° Northwest  Level FlightAware Approximate
Thu 03:31:00 AM -4.6787 128.9258 325° Northwest  Level FlightAware Approximate
Thu 03:32:00 AM -4.5717 128.8513 325° Northwest  Level FlightAware Approximate
Thu 03:33:00 AM -4.4646 128.7767 325° Northwest  Level FlightAware Approximate
Thu 03:33:41 AM -4.1310 128.5870 325° Northwest 477 549 38,000  Level FlightAware ADS-B
Thu 03:34:18 AM -4.0670 128.5420 325° Northwest 477 549 38,000  Level FlightAware ADS-B
Thu 03:34:55 AM -3.9980 128.4950 326° Northwest 477 549 38,000  Level FlightAware ADS-B
Thu 03:35:35 AM -3.9370 128.4520 325° Northwest 477 549 38,000  Level FlightAware ADS-B
Thu 03:36:27 AM -3.9600 128.4680 145° Southeast 477 549 38,000  Level FlightAware ADS-B
Thu 03:37:16 AM -3.9580 128.4670 333° Northwest 477 549 38,000  Level FlightAware ADS-B
Thu 03:38:12 AM -3.6510 128.2520 325° Northwest 480 552 38,000  Level FlightAware ADS-B
Thu 03:39:00 AM -3.5490 128.1930 330° Northwest 479 551 38,000  Level FlightAware ADS-B
Thu 03:39:15 AM -3.5950 128.2190 151° Southeast 474 545 38,000  Level FlightAware ADS-B
Thu 03:40:12 AM -3.4150 128.1450 338° Northwest 474 545 38,000  Level FlightAware ADS-B
Thu 03:40:49 AM -3.3370 128.1140 338° Northwest 472 543 38,000  Level FlightAware ADS-B
Thu 03:41:21 AM -3.2540 128.0820 339° North 472 543 38,000  Level FlightAware ADS-B
Thu 03:41:58 AM -3.1830 128.0540 339° North 470 541 38,000  Level FlightAware ADS-B
Thu 03:42:34 AM -3.1080 128.0250 339° North 469 540 38,000  Level FlightAware ADS-B
Thu 03:43:16 AM -3.0210 127.9910 339° North 467 537 38,000  Level FlightAware ADS-B
Thu 03:43:52 AM -2.9480 127.9630 339° North 468 539 38,000  Level FlightAware ADS-B
Thu 03:44:22 AM -2.8890 127.9400 339° North 468 539 38,000  Level FlightAware ADS-B
Thu 03:45:05 AM -2.7970 127.9040 339° North 470 541 38,000  Level FlightAware ADS-B
Thu 03:45:45 AM -2.7310 127.8790 339° North 470 541 38,000  Level FlightAware ADS-B
Thu 03:46:26 AM -2.6420 127.8440 339° North 471 542 38,000  Level FlightAware ADS-B
Thu 03:47:02 AM -2.5800 127.8210 340° North 471 542 38,000  Level FlightAware ADS-B
Thu 03:47:38 AM -2.5180 127.7970 339° North 471 542 38,000  Level FlightAware ADS-B
Thu 03:48:15 AM -2.4540 127.7720 339° North 471 542 38,000  Level FlightAware ADS-B
Thu 03:48:51 AM -2.3910 127.7480 339° North 471 542 38,000  Level FlightAware ADS-B
Thu 03:49:27 AM -2.3290 127.7240 339° North 471 542 38,000  Level FlightAware ADS-B
Thu 03:50:04 AM -2.2650 127.7000 339° North 471 542 38,000  Level FlightAware ADS-B
Thu 03:50:40 AM -2.2030 127.6760 339° North 471 542 38,000  Level FlightAware ADS-B
Thu 03:51:16 AM -2.1410 127.6520 339° North 471 542 38,000  Level FlightAware ADS-B
Thu 03:51:52 AM -2.0780 127.6280 339° North 471 542 38,000  Level FlightAware ADS-B
Thu 03:52:28 AM -2.0160 127.6040 339° North 471 542 38,000  Level FlightAware ADS-B
Thu 03:53:04 AM -1.9540 127.5800 339° North 471 542 38,000  Level FlightAware ADS-B
Thu 03:53:40 AM -1.8920 127.5560 339° North 471 542 38,000  Level FlightAware ADS-B
Thu 03:54:16 AM -1.8290 127.5320 339° North 471 542 38,000  Level FlightAware ADS-B
Thu 03:54:52 AM -1.7670 127.5080 339° North 471 542 38,000  Level FlightAware ADS-B
Thu 03:55:28 AM -1.7050 127.4840 339° North 471 542 38,000  Level FlightAware ADS-B
Thu 03:58:00 AM -1.3982 127.3620 338° Northwest  Level FlightAware Approximate
Thu 03:59:00 AM -1.2771 127.3139 338° Northwest  Level FlightAware Approximate
Thu 04:00:00 AM -1.1560 127.2658 338° Northwest  Level FlightAware Approximate
Thu 04:01:00 AM -1.0349 127.2176 338° Northwest  Level FlightAware Approximate
Thu 04:02:00 AM -0.9138 127.1695 338° Northwest  Level FlightAware Approximate
Thu 04:03:00 AM -0.7926 127.1214 338° Northwest  Level FlightAware Approximate
Thu 04:04:00 AM -0.6715 127.0733 338° Northwest  Level FlightAware Approximate
Thu 04:05:00 AM -0.5504 127.0251 338° Northwest  Level FlightAware Approximate
Thu 04:06:00 AM -0.4293 126.9770 338° Northwest  Level FlightAware Approximate
Thu 04:07:00 AM -0.3082 126.9289 338° Northwest  Level FlightAware Approximate
Thu 04:08:00 AM -0.1871 126.8808 338° Northwest  Level FlightAware Approximate
Thu 04:09:00 AM -0.0660 126.8327 338° Northwest  Level FlightAware Approximate
Thu 04:10:00 AM 0.0551 126.7846 338° Northwest  Level FlightAware Approximate
Thu 04:11:00 AM 0.1762 126.7365 338° Northwest  Level FlightAware Approximate
Thu 04:12:00 AM 0.2973 126.6884 338° Northwest  Level FlightAware Approximate
Thu 04:13:00 AM 0.4184 126.6403 338° Northwest  Level FlightAware Approximate
Thu 04:14:00 AM 0.5396 126.5922 338° Northwest  Level FlightAware Approximate
Thu 04:15:00 AM 0.6607 126.5440 338° Northwest  Level FlightAware Approximate
Thu 04:16:00 AM 0.7818 126.4959 338° Northwest  Level FlightAware Approximate
Thu 04:17:00 AM 0.9029 126.4478 338° Northwest  Level FlightAware Approximate
Thu 04:18:00 AM 1.0240 126.3997 338° Northwest  Level FlightAware Approximate
Thu 04:19:00 AM 1.1451 126.3515 338° Northwest  Level FlightAware Approximate
Thu 04:20:00 AM 1.2662 126.3034 338° Northwest  Level FlightAware Approximate
Thu 04:21:00 AM 1.3873 126.2553 338° Northwest  Level FlightAware Approximate
Thu 04:22:00 AM 1.5084 126.2071 338° Northwest  Level FlightAware Approximate
Thu 04:23:00 AM 1.6295 126.1590 338° Northwest  Level FlightAware Approximate
Thu 04:24:00 AM 1.7506 126.1108 338° Northwest  Level FlightAware Approximate
Thu 04:25:00 AM 1.8717 126.0627 338° Northwest  Level FlightAware Approximate
Thu 04:26:00 AM 1.9928 126.0145 338° Northwest  Level FlightAware Approximate
Thu 04:27:00 AM 2.1166 125.9732 342° North  Level FlightAware Approximate
Thu 04:28:00 AM 2.2404 125.9323 342° North  Level FlightAware Approximate
Thu 04:29:00 AM 2.3641 125.8914 342° North  Level FlightAware Approximate
Thu 04:30:00 AM 2.4879 125.8505 342° North  Level FlightAware Approximate
Thu 04:31:00 AM 2.6116 125.8096 342° North  Level FlightAware Approximate
Thu 04:32:00 AM 2.7354 125.7687 342° North  Level FlightAware Approximate
Thu 04:33:00 AM 2.8591 125.7278 342° North  Level FlightAware Approximate
Thu 04:34:00 AM 2.9829 125.6868 342° North  Level FlightAware Approximate
Thu 04:35:00 AM 3.1066 125.6459 342° North  Level FlightAware Approximate
Thu 04:36:00 AM 3.2303 125.6049 342° North  Level FlightAware Approximate
Thu 04:37:00 AM 3.3541 125.5640 342° North  Level FlightAware Approximate
Thu 04:38:00 AM 3.4778 125.5230 342° North  Level FlightAware Approximate
Thu 04:39:00 AM 3.6016 125.4820 342° North  Level FlightAware Approximate
Thu 04:40:00 AM 3.7253 125.4410 342° North  Level FlightAware Approximate
Thu 04:41:00 AM 3.8490 125.4000 342° North  Level FlightAware Approximate
Thu 04:42:00 AM 3.9727 125.3590 342° North  Level FlightAware Approximate
Thu 04:43:00 AM 4.0957 125.3157 340° North  Level FlightAware Approximate
Thu 04:44:00 AM 4.2184 125.2717 340° North  Level FlightAware Approximate
Thu 04:45:00 AM 4.3411 125.2276 340° North  Level FlightAware Approximate
Thu 04:46:00 AM 4.4638 125.1836 340° North  Level FlightAware Approximate
Thu 04:47:00 AM 4.5865 125.1395 340° North  Level FlightAware Approximate
Thu 04:48:00 AM 4.7091 125.0955 340° North  Level FlightAware Approximate
Thu 04:49:00 AM 4.8318 125.0514 340° North  Level FlightAware Approximate
Thu 04:50:00 AM 4.9545 125.0073 340° North  Level FlightAware Approximate
Thu 04:51:00 AM 5.0772 124.9632 340° North  Level FlightAware Approximate
Thu 04:52:00 AM 5.1999 124.9190 340° North  Level FlightAware Approximate
Thu 04:53:00 AM 5.3226 124.8748 340° North  Level FlightAware Approximate
Thu 04:54:00 AM 5.4452 124.8307 340° North  Level FlightAware Approximate
Thu 04:55:00 AM 5.5679 124.7865 340° North  Level FlightAware Approximate
Thu 04:56:00 AM 5.6906 124.7423 340° North  Level FlightAware Approximate
Thu 04:57:00 AM 5.8132 124.6981 340° North  Level FlightAware Approximate
Thu 04:58:00 AM 5.9359 124.6538 340° North  Level FlightAware Approximate
Thu 04:59:00 AM 6.0585 124.6095 340° North  Level FlightAware Approximate
Thu 05:00:00 AM 6.1812 124.5652 340° North  Level FlightAware Approximate
Thu 05:01:00 AM 6.3039 124.5210 340° North  Level FlightAware Approximate
Thu 05:02:00 AM 6.4265 124.4767 340° North  Level FlightAware Approximate
Thu 05:03:00 AM 6.5492 124.4325 340° North  Level FlightAware Approximate
Thu 05:04:00 AM 6.6719 124.3882 340° North  Level FlightAware Approximate
Thu 05:05:00 AM 6.7945 124.3439 340° North  Level FlightAware Approximate
Thu 05:06:00 AM 6.9172 124.2995 340° North  Level FlightAware Approximate
Thu 05:07:00 AM 7.0399 124.2552 340° North  Level FlightAware Approximate
Thu 05:08:00 AM 7.1625 124.2108 340° North  Level FlightAware Approximate
Thu 05:09:00 AM 7.2810 124.1562 335° Northwest  Level FlightAware Approximate
Thu 05:10:00 AM 7.3994 124.1013 335° Northwest  Level FlightAware Approximate
Thu 05:11:00 AM 7.5178 124.0464 335° Northwest  Level FlightAware Approximate
Thu 05:12:00 AM 7.6362 123.9914 335° Northwest  Level FlightAware Approximate
Thu 05:13:00 AM 7.7546 123.9364 335° Northwest  Level FlightAware Approximate
Thu 05:14:00 AM 7.8730 123.8814 335° Northwest  Level FlightAware Approximate
Thu 05:15:00 AM 7.9913 123.8264 335° Northwest  Level FlightAware Approximate
Thu 05:15:34 AM 8.4590 123.6080 335° Northwest 482 555 38,000  Level FlightAware ADS-B
Thu 05:16:00 AM 8.1097 123.7713 335° Northwest  Level FlightAware Approximate
Thu 05:16:20 AM 8.5480 123.5670 336° Northwest 482 555 38,000  Level FlightAware ADS-B
Thu 05:16:58 AM 8.6230 123.5320 335° Northwest 483 556 38,000  Level FlightAware ADS-B
Thu 05:17:33 AM 8.7010 123.4950 335° Northwest 484 557 38,000  Level FlightAware ADS-B
Thu 05:18:18 AM 8.7910 123.4530 335° Northwest 484 557 38,000  Level FlightAware ADS-B
Thu 05:18:51 AM 8.8590 123.4220 336° Northwest 484 557 38,000  Level FlightAware ADS-B
Thu 05:19:17 AM 8.9130 123.3960 335° Northwest 483 556 38,000  Level FlightAware ADS-B
Thu 05:20:00 AM 8.9990 123.3560 335° Northwest 484 557 38,000  Level FlightAware ADS-B
Thu 05:20:36 AM 9.0740 123.3210 335° Northwest 485 558 38,000  Level FlightAware ADS-B
Thu 05:21:13 AM 9.1450 123.2880 335° Northwest 486 559 38,000  Level FlightAware ADS-B
Thu 05:21:48 AM 9.2220 123.2530 336° Northwest 485 558 38,000  Level FlightAware ADS-B
Thu 05:22:18 AM 9.2850 123.2340 343° North 479 551 38,000  Level FlightAware ADS-B
Thu 05:22:54 AM 9.3650 123.2200 350° North 476 548 38,000  Level FlightAware ADS-B
Thu 05:23:31 AM 9.4460 123.2070 351° North 478 550 38,000  Level FlightAware ADS-B
Thu 05:24:08 AM 9.5240 123.1920 349° North 481 554 38,000  Level FlightAware ADS-B
Thu 05:24:42 AM 9.6050 123.1760 349° North 482 555 38,000  Level FlightAware ADS-B
Thu 05:25:18 AM 9.6830 123.1610 349° North 483 556 38,000  Level FlightAware ADS-B
Thu 05:25:53 AM 9.7580 123.1450 348° North 481 554 38,000  Level FlightAware ADS-B
Thu 05:26:27 AM 9.8320 123.1300 349° North 477 549 38,000  Level FlightAware ADS-B
Thu 05:27:04 AM 9.9080 123.1040 341° North 481 554 38,000  Level FlightAware ADS-B
Thu 05:27:34 AM 9.9640 123.0690 328° Northwest 485 558 38,000  Level FlightAware ADS-B
Thu 05:28:11 AM 10.0290 123.0120 319° Northwest 486 559 38,000  Level FlightAware ADS-B
Thu 05:28:47 AM 10.0930 122.9570 320° Northwest 482 555 38,000  Level FlightAware ADS-B
Thu 05:29:20 AM 10.1430 122.9140 320° Northwest 481 554 38,000  Level FlightAware ADS-B
Thu 05:29:56 AM 10.2060 122.8590 319° Northwest 479 551 38,000  Level FlightAware ADS-B
Thu 05:30:32 AM 10.2670 122.8060 319° Northwest 481 554 38,000  Level FlightAware ADS-B
Thu 05:31:08 AM 10.3300 122.7520 320° Northwest 481 554 38,000  Level FlightAware ADS-B
Thu 05:31:48 AM 10.4000 122.7020 325° Northwest 478 550 38,000  Level FlightAware ADS-B
Thu 05:32:23 AM 10.4730 122.6630 332° Northwest 476 548 38,000  Level FlightAware ADS-B
Thu 05:32:58 AM 10.5420 122.6310 335° Northwest 477 549 38,000  Level FlightAware ADS-B
Thu 05:33:38 AM 10.6190 122.5950 335° Northwest 478 550 38,000  Level FlightAware ADS-B
Thu 05:34:09 AM 10.6870 122.5630 335° Northwest 479 551 38,000  Level FlightAware ADS-B
Thu 05:34:44 AM 10.7500 122.5330 335° Northwest 480 552 38,000  Level FlightAware ADS-B
Thu 05:35:18 AM 10.8230 122.4980 335° Northwest 479 551 38,000  Level FlightAware ADS-B
Thu 05:36:02 AM 10.9050 122.4610 336° Northwest 477 549 38,000  Level FlightAware ADS-B
Thu 05:36:38 AM 10.9830 122.4280 337° Northwest 476 548 38,000  Level FlightAware ADS-B
Thu 05:37:15 AM 11.0580 122.3960 337° Northwest 476 548 38,000  Level FlightAware ADS-B
Thu 05:37:45 AM 11.1220 122.3680 337° Northwest 476 548 38,000  Level FlightAware ADS-B
Thu 05:38:18 AM 11.1900 122.3390 337° Northwest 473 544 38,000  Level FlightAware ADS-B
Thu 05:39:09 AM 11.2840 122.2980 337° Northwest 470 541 38,000  Level FlightAware ADS-B
Thu 05:39:46 AM 11.3630 122.2640 337° Northwest 470 541 38,000  Level FlightAware ADS-B
Thu 05:40:22 AM 11.4330 122.2340 337° Northwest 463 533 38,000  Level FlightAware ADS-B
Thu 05:40:52 AM 11.4890 122.2090 336° Northwest 463 533 38,000  Level FlightAware ADS-B
Thu 05:41:46 AM 11.5990 122.1620 337° Northwest 463 533 38,000  Level FlightAware ADS-B
Thu 05:42:22 AM 11.6750 122.1280 336° Northwest 462 532 38,000  Level FlightAware ADS-B
Thu 05:43:12 AM 11.7550 122.0940 337° Northwest 461 531 38,000  Level FlightAware ADS-B
Thu 05:43:48 AM 11.8150 122.0680 337° Northwest 461 531 38,000  Level FlightAware ADS-B
Thu 05:44:24 AM 11.8750 122.0420 337° Northwest 461 531 38,000  Level FlightAware ADS-B
Thu 05:45:05 AM 11.9860 121.9930 337° Northwest 461 531 38,000  Level FlightAware ADS-B
Thu 05:45:41 AM 12.0460 121.9670 337° Northwest 461 531 38,000  Level FlightAware ADS-B
Thu 05:46:17 AM 12.1060 121.9410 337° Northwest 461 531 38,000  Level FlightAware ADS-B
Thu 05:46:54 AM 12.1680 121.9140 337° Northwest 461 531 38,000  Level FlightAware ADS-B
Thu 05:47:30 AM 12.2280 121.8880 337° Northwest 461 531 38,000  Level FlightAware ADS-B
Thu 05:48:07 AM 12.2890 121.8610 337° Northwest 461 531 38,000  Level FlightAware ADS-B
Thu 05:48:44 AM 12.3510 121.8350 338° Northwest 461 531 38,000  Level FlightAware ADS-B
Thu 05:49:20 AM 12.4110 121.8090 337° Northwest 461 531 38,000  Level FlightAware ADS-B
Thu 05:49:56 AM 12.4710 121.7820 336° Northwest 461 531 38,000  Level FlightAware ADS-B
Thu 05:50:32 AM 12.5310 121.7560 337° Northwest 461 531 38,000  Level FlightAware ADS-B
Thu 05:51:08 AM 12.5910 121.7300 337° Northwest 461 531 38,000  Level FlightAware ADS-B
Thu 05:51:44 AM 12.6520 121.7040 337° Northwest 461 531 38,000  Level FlightAware ADS-B
Thu 05:52:20 AM 12.7120 121.6780 337° Northwest 461 531 38,000  Level FlightAware ADS-B
Thu 05:52:56 AM 12.7720 121.6520 337° Northwest 461 531 38,000 -8,182 Level FlightAware ADS-B
Thu 05:53:26 AM 12.9840 121.5540 336° Northwest 441 507 29,000 -9,966 Descending FlightAware ADS-B
Thu 05:53:55 AM 13.0290 121.5170 321° Northwest 436 502 28,200 -1,781 Descending FlightAware ADS-B
Thu 05:54:30 AM 13.0830 121.4700 320° Northwest 430 495 27,100 -1,765 Descending FlightAware ADS-B
Thu 05:55:03 AM 13.1310 121.4270 319° Northwest 423 487 26,200 -1,714 Descending FlightAware ADS-B
Thu 05:55:40 AM 13.1880 121.3760 319° Northwest 416 479 25,100 -1,826 Descending FlightAware ADS-B
Thu 05:56:12 AM 13.2310 121.3380 319° Northwest 413 475 24,100 -1,875 Descending FlightAware ADS-B
Thu 05:56:28 AM 13.2600 121.3180 326° Northwest 406 467 23,600 -1,448 Descending FlightAware ADS-B
Thu 05:56:41 AM 13.2830 121.3100 341° North 398 458 23,400 -1,080 Descending FlightAware ADS-B
Thu 05:57:18 AM 13.3480 121.2930 346° North 394 453 22,700 -1,043 Descending FlightAware ADS-B
Thu 05:57:50 AM 13.4040 121.2780 345° North 393 452 22,200 -971 Descending FlightAware ADS-B
Thu 05:58:26 AM 13.4670 121.2600 344° North 384 442 21,600 -1,333 Descending FlightAware ADS-B
Thu 05:59:02 AM 13.5300 121.2430 345° North 382 440 20,600 -1,765 Descending FlightAware ADS-B
Thu 05:59:34 AM 13.5850 121.2280 345° North 378 435 19,600 -1,565 Descending FlightAware ADS-B
Thu 06:00:11 AM 13.6410 121.2130 345° North 367 422 18,800 -973 Descending FlightAware ADS-B
Thu 06:00:48 AM 13.7050 121.1980 347° North 342 394 18,400 -500 Descending FlightAware ADS-B
Thu 06:01:23 AM 13.7590 121.1870 349° North 316 364 18,200 -273 Descending FlightAware ADS-B
Thu 06:01:54 AM 13.8020 121.1780 349° North 296 341 18,100 -353 Descending FlightAware ADS-B
Thu 06:02:31 AM 13.8500 121.1670 347° North 275 316 17,800 -686 Descending FlightAware ADS-B
Thu 06:03:04 AM 13.8910 121.1580 348° North 270 311 17,300 -1,029 Descending FlightAware ADS-B
Thu 06:03:41 AM 13.9350 121.1480 348° North 269 310 16,600 -1,216 Descending FlightAware ADS-B
Thu 06:04:18 AM 13.9800 121.1380 348° North 272 313 15,800 -1,151 Descending FlightAware ADS-B
Thu 06:04:54 AM 14.0250 121.1280 348° North 268 308 15,200 -1,043 Descending FlightAware ADS-B
Thu 06:05:27 AM 14.0670 121.1190 348° North 269 310 14,600 -980 Descending FlightAware ADS-B
Thu 06:05:43 AM 14.0830 121.1150 346° North 267 307 14,400 -857 Descending FlightAware ADS-B
Thu 06:06:02 AM 14.1050 121.1010 328° Northwest 262 302 14,100 -1,071 Descending FlightAware ADS-B
Thu 06:06:39 AM 14.1400 121.0770 326° Northwest 268 308 13,400 -1,169 Descending FlightAware ADS-B
Thu 06:07:19 AM 14.1850 121.0470 327° Northwest 266 306 12,600 -1,054 Descending FlightAware ADS-B
Thu 06:07:53 AM 14.2190 121.0230 326° Northwest 262 302 12,100 -943 Descending FlightAware ADS-B
Thu 06:08:29 AM 14.2560 120.9980 327° Northwest 259 298 11,500 -971 Descending FlightAware ADS-B
Thu 06:09:01 AM 14.2890 120.9770 328° Northwest 256 295 11,000 -1,038 Descending FlightAware ADS-B
Thu 06:09:21 AM 14.3090 120.9660 332° Northwest 257 296 10,600 -1,241 Descending FlightAware ADS-B
Thu 06:09:30 AM 14.3190 120.9650 354° North 258 297 10,400 -261 Descending FlightAware ADS-B
Thu 06:10:07 AM 14.3570 120.9620 356° North 258 297 10,400 -878 Level FlightAware ADS-B
Thu 06:10:11 AM 14.3560 120.9950 92° East 256 295 9,800 -2,727 Descending FlightAware ADS-B
Thu 06:10:29 AM 14.3660 121.0140 61° Northeast 254 292 9,400 -1,692 Descending FlightAware ADS-B
Thu 06:10:50 AM 14.3780 121.0360 61° Northeast 256 295 8,700 -1,875 Descending FlightAware ADS-B
Thu 06:11:17 AM 14.3940 121.0650 60° Northeast 256 295 7,900 -1,814 Descending FlightAware ADS-B
Thu 06:11:33 AM 14.4040 121.0830 60° Northeast 254 292 7,400 -1,800 Descending FlightAware ADS-B
Thu 06:11:37 AM 14.4060 121.0870 63° Northeast 253 291 7,300 -1,650 Descending FlightAware ADS-B
Thu 06:12:13 AM 14.4270 121.1250 60° Northeast 250 288 6,300 -1,529 Descending FlightAware ADS-B
Thu 06:12:28 AM 14.4350 121.1410 63° Northeast 253 291 6,000 -1,200 Descending FlightAware ADS-B
Thu 06:12:48 AM 14.4490 121.1600 53° Northeast 255 293 5,600 -1,105 Descending FlightAware ADS-B
Thu 06:13:06 AM 14.4620 121.1770 52° Northeast 258 297 5,300 -600 Descending FlightAware ADS-B
Thu 06:13:28 AM 14.4790 121.1990 51° Northeast 266 306 5,200 -150 Descending FlightAware ADS-B
Thu 06:13:46 AM 14.4930 121.2170 51° Northeast 272 313 5,200 158 Level FlightAware ADS-B
Thu 06:14:06 AM 14.5080 121.2350 49° Northeast 236 272 5,300  Climbing FlightAware ADS-B
Thu 06:14:26 AM 14.5210 121.2520 52° Northeast 212 244 5,200 -167 Descending FlightAware ADS-B
Thu 06:14:42 AM 14.5310 121.2640 49° Northeast 198 228 5,200  Level FlightAware ADS-B
Thu 06:14:50 AM 14.5370 121.2680 33° Northeast 187 215 5,200  Level FlightAware ADS-B
Thu 06:14:54 AM 14.5400 121.2690 18° North 184 212 5,200  Level FlightAware ADS-B
Thu 06:15:02 AM 14.5460 121.2710 18° North 178 205 5,200 -462 Level FlightAware ADS-B
Thu 06:15:20 AM 14.5620 121.2710 360° North 179 206 5,000 -857 Descending FlightAware ADS-B
Thu 06:15:30 AM 14.5710 121.2700 354° North 181 208 4,800 -1,000 Descending FlightAware ADS-B
Thu 06:15:38 AM 14.5760 121.2680 339° North 182 209 4,700 -1,071 Descending FlightAware ADS-B
Thu 06:15:58 AM 14.5910 121.2600 333° Northwest 184 212 4,300 -1,050 Descending FlightAware ADS-B
Thu 06:16:18 AM 14.6050 121.2490 323° Northwest 182 209 4,000 -857 Descending FlightAware ADS-B
Thu 06:16:26 AM 14.6080 121.2430 297° West 179 206 3,900 -692 Descending FlightAware ADS-B
Thu 06:16:44 AM 14.6090 121.2270 274° West 180 207 3,700 -400 Descending FlightAware ADS-B
Thu 06:16:56 AM 14.6090 121.2180 270° West 181 208 3,700 -158 Level FlightAware ADS-B
Thu 06:17:22 AM 14.6050 121.1960 259° West 173 199 3,600 -261 Descending FlightAware ADS-B
Thu 06:17:42 AM 14.5980 121.1810 244° Southwest 170 196 3,500 -667 Descending FlightAware ADS-B
Thu 06:17:58 AM 14.5920 121.1700 241° Southwest 170 196 3,200 -1,000 Descending FlightAware ADS-B
Thu 06:18:18 AM 14.5840 121.1560 239° Southwest 166 191 2,900 -900 Descending FlightAware ADS-B
Thu 06:18:38 AM 14.5770 121.1420 243° Southwest 159 183 2,600 -857 Descending FlightAware ADS-B
Thu 06:18:53 AM 14.5710 121.1320 238° Southwest 154 177 2,400 -833 Descending FlightAware ADS-B
Thu 06:19:14 AM 14.5640 121.1190 241° Southwest 145 167 2,100 -732 Descending FlightAware ADS-B
Thu 06:19:34 AM 14.5580 121.1070 243° Southwest 138 159 1,900 -667 Descending FlightAware ADS-B
Thu 06:19:50 AM 14.5530 121.0990 237° Southwest 137 158 1,700 -686 Descending FlightAware ADS-B
Thu 06:20:09 AM 14.5460 121.0880 237° Southwest 135 155 1,500 -750 Descending FlightAware ADS-B
Thu 06:20:30 AM 14.5400 121.0750 245° Southwest 136 157 1,200 -732 Descending FlightAware ADS-B
Thu 06:20:50 AM 14.5330 121.0640 237° Southwest 136 157 1,000 -600 Descending FlightAware ADS-B
Thu 06:21:10 AM 14.5270 121.0530 241° Southwest 137 158 800 -393 Descending FlightAware ADS-B
Thu 06:21:51 AM 14.5150 121.0320 239° Southwest 138 159 600 -293 Descending FlightAware ADS-B
Thu 06:24:00 AM 14.5086 121.0196 242° Southwest  Level Estimated

Login

Don't have an account? Register now (free) for customized features, flight alerts, and more!